PWSweather.com
Personal Weather Stations
Station Observations
MAKAWAOWX1
Up Country Maui, Makawao, HI 96768

Up Country MauiMakawao, HI 96768

Lat: 20.856944, Lon: -156.3149667

Elevation: 1500

Station Type: Davis Vantage Pro

www.dwayneyamato@hawaiiantel.net

High Low Average
Temperature 84.8°F29.3°F 70.5°F21.4°F 76.3°F24.6°F
Dew Point 72.8°F22.7°F 62.8°F17.1°F 68.2°F20.1°F
Winds 8.1 mph ENE13.0 mph ENE Calm Calm 2.4 mph 3.9 mph
Wind Gusts 15.0 mph24.1 mph -- 6.0 mph9.7 mph
Humidity 86% 67% 76%
Pressure 29.98 in1015.20 in 29.85 in1010.80 in -
Precipitation 0.00 in0.00 in - -
Hour Temp Dew Point Humidity Winds Wind Gusts Pressure Precip Precip Rate Daily Precip Total
12:00 AM 72.1°F22.3°C 67.7°F19.8°C 86% Calm Calm -- 29.93 in1013.5 mb - 0.00 in0.0 mm 0.00 in0.0 mm
01:00 AM 72.6°F22.6°C 68.1°F20.1°C 86% Calm Calm -- 29.93 in1013.5 mb - 0.00 in0.0 mm 0.00 in0.0 mm
02:00 AM 72.5°F22.5°C 67.7°F19.8°C 85% 5.8 mph ESE9.3 kmh ESE 10.4 mph16.7 kmh 29.90 in1012.5 mb - 0.00 in0.0 mm 0.00 in0.0 mm
03:00 AM 71.7°F22.1°C 66.6°F19.2°C 84% Calm Calm -- 29.89 in1012.2 mb - 0.00 in0.0 mm 0.00 in0.0 mm
04:00 AM 71.5°F21.9°C 66.4°F19.1°C 84% Calm Calm -- 29.89 in1012.2 mb - 0.00 in0.0 mm 0.00 in0.0 mm
05:00 AM 71.5°F21.9°C 66.7°F19.3°C 85% Calm Calm -- 29.89 in1012.2 mb - 0.00 in0.0 mm 0.00 in0.0 mm
06:00 AM 70.5°F21.4°C 66.1°F18.9°C 86% Calm Calm -- 29.90 in1012.5 mb - 0.00 in0.0 mm 0.00 in0.0 mm
07:00 AM 71.3°F21.8°C 66.6°F19.2°C 85% Calm Calm -- 29.92 in1013.2 mb - 0.00 in0.0 mm 0.00 in0.0 mm
08:00 AM 75.3°F24.1°C 68.4°F20.2°C 79% 2.3 mph SE3.7 kmh SE 6.9 mph11.1 kmh 29.93 in1013.5 mb - 0.00 in0.0 mm 0.00 in0.0 mm
09:00 AM 80.7°F27.1°C 71.2°F21.8°C 73% 5.8 mph ENE9.3 kmh ENE 10.4 mph16.7 kmh 29.93 in1013.5 mb - 0.00 in0.0 mm 0.00 in0.0 mm
10:00 AM 80.5°F26.9°C 69.8°F21.0°C 70% 1.2 mph E1.9 kmh E 11.5 mph18.5 kmh 29.93 in1013.5 mb - 0.00 in0.0 mm 0.00 in0.0 mm
11:00 AM 79.2°F26.2°C 70.6°F21.4°C 75% 3.5 mph ENE5.6 kmh ENE 11.5 mph18.5 kmh 29.93 in1013.5 mb - 0.00 in0.0 mm 0.00 in0.0 mm
12:00 PM 82.4°F28.0°C 71.7°F22.1°C 70% 5.8 mph E9.3 kmh E 9.2 mph14.8 kmh 29.90 in1012.5 mb - 0.00 in0.0 mm 0.00 in0.0 mm
01:00 PM 82.7°F28.2°C 72.3°F22.4°C 71% 8.1 mph ENE13.0 kmh ENE 15.0 mph24.1 kmh 29.88 in1011.9 mb - 0.00 in0.0 mm 0.00 in0.0 mm
02:00 PM 84.1°F28.9°C 72.8°F22.7°C 69% 6.9 mph E11.1 kmh E 12.7 mph20.4 kmh 29.85 in1010.8 mb - 0.00 in0.0 mm 0.00 in0.0 mm
03:00 PM 84.8°F29.3°C 72.6°F22.6°C 67% 2.3 mph E3.7 kmh E 11.5 mph18.5 kmh 29.85 in1010.8 mb - 0.00 in0.0 mm 0.00 in0.0 mm
04:00 PM 84.1°F28.9°C 72.4°F22.4°C 68% Calm Calm 1.2 mph1.9 kmh 29.85 in1010.8 mb - 0.00 in0.0 mm 0.00 in0.0 mm
05:00 PM 82.0°F27.8°C 70.8°F21.6°C 69% Calm Calm 3.5 mph5.6 kmh 29.87 in1011.5 mb - 0.00 in0.0 mm 0.00 in0.0 mm
06:00 PM 77.5°F25.3°C 68.2°F20.1°C 73% 3.5 mph E5.6 kmh E 10.4 mph16.7 kmh 29.89 in1012.2 mb - 0.00 in0.0 mm 0.00 in0.0 mm
07:00 PM 73.5°F23.1°C 65.8°F18.8°C 77% 4.6 mph E7.4 kmh E 12.7 mph20.4 kmh 29.92 in1013.2 mb - 0.00 in0.0 mm 0.00 in0.0 mm
08:00 PM 72.8°F22.7°C 64.8°F18.2°C 76% 3.5 mph ESE5.6 kmh ESE 8.1 mph13.0 kmh 29.95 in1014.2 mb - 0.00 in0.0 mm 0.00 in0.0 mm
09:00 PM 73.1°F22.8°C 63.1°F17.3°C 71% 3.5 mph E5.6 kmh E 9.2 mph14.8 kmh 29.97 in1014.9 mb - 0.00 in0.0 mm 0.00 in0.0 mm
10:00 PM 72.8°F22.7°C 62.8°F17.1°C 71% Calm Calm -- 29.98 in1015.2 mb - 0.00 in0.0 mm 0.00 in0.0 mm
11:00 PM 72.1°F22.3°C 63.7°F17.6°C 75% Calm Calm -- 29.97 in1014.9 mb - 0.00 in0.0 mm 0.00 in0.0 mm